createdAt,value
2023-04-11T03:48:12.588Z,923.38
2023-04-11T03:50:39.723Z,926.40
2023-04-11T03:53:07.149Z,915.13
2023-04-11T03:55:33.937Z,915.42
2023-04-11T03:58:00.707Z,919.00
2023-04-11T04:00:28.356Z,928.33
2023-04-11T04:02:55.317Z,918.78
2023-04-11T04:05:22.270Z,918.08
2023-04-11T04:07:48.928Z,917.50
2023-04-11T04:10:15.717Z,917.72
2023-04-11T04:12:42.336Z,916.30
2023-04-11T04:15:09.537Z,920.40
2023-04-11T04:17:36.185Z,920.42
2023-04-11T04:20:04.244Z,910.75
2023-04-11T04:22:31.139Z,912.70
2023-04-11T04:24:58.225Z,908.40
2023-04-11T04:27:25.130Z,910.13
2023-04-11T04:29:56.498Z,912.22
2023-04-11T04:32:28.700Z,916.25
2023-04-11T04:34:55.558Z,910.65
2023-04-11T04:37:25.015Z,912.90
2023-04-11T04:39:55.977Z,913.25
2023-04-11T04:42:24.330Z,901.20
2023-04-11T04:44:52.410Z,908.20
2023-04-11T04:47:19.832Z,907.15
2023-04-11T04:49:46.770Z,898.67
2023-04-11T04:52:14.579Z,900.33
2023-04-11T04:54:41.872Z,904.88
2023-04-11T04:57:08.597Z,905.83
2023-04-11T04:59:35.382Z,901.47
2023-04-11T05:02:02.172Z,904.78
2023-04-11T05:04:29.890Z,914.08
2023-04-11T05:06:56.813Z,906.47
2023-04-11T05:09:23.501Z,912.47
2023-04-11T05:11:50.638Z,903.75
2023-04-11T05:14:17.633Z,913.83
2023-04-11T05:16:44.498Z,908.42
2023-04-11T05:19:11.328Z,899.70
2023-04-11T05:21:38.759Z,896.70
2023-04-11T05:24:05.669Z,896.45
2023-04-11T05:26:32.310Z,895.58
2023-04-11T05:29:00.885Z,898.33
2023-04-11T05:31:27.693Z,887.92
2023-04-11T05:33:54.721Z,889.70
2023-04-11T05:36:21.673Z,904.25
2023-04-11T05:38:49.141Z,898.70
2023-04-11T05:41:15.857Z,894.97
2023-04-11T05:43:42.519Z,889.30
2023-04-11T05:46:09.430Z,887.03
2023-04-11T05:48:38.026Z,884.28
2023-04-11T05:51:05.422Z,884.13
2023-04-11T05:53:32.098Z,890.15
2023-04-11T05:55:58.934Z,882.78
2023-04-11T05:58:25.746Z,875.17
2023-04-11T06:00:52.407Z,886.15
2023-04-11T06:03:19.117Z,893.08
2023-04-11T06:05:46.035Z,886.05
2023-04-11T06:08:12.845Z,891.30
2023-04-11T06:10:41.227Z,886.63
2023-04-11T06:13:07.834Z,889.67
2023-04-11T06:15:34.667Z,888.75
2023-04-11T06:18:01.480Z,896.17
2023-04-11T06:20:28.341Z,890.30
2023-04-11T06:22:55.201Z,895.87
2023-04-11T06:25:21.964Z,893.72
2023-04-11T06:27:48.820Z,890.88
2023-04-11T06:30:15.631Z,885.92
2023-04-11T06:32:42.593Z,885.67
2023-04-11T06:35:09.708Z,895.70
2023-04-11T06:37:36.382Z,891.73
2023-04-11T06:40:05.665Z,894.10
2023-04-11T06:42:32.620Z,891.22
2023-04-11T06:44:59.296Z,887.25
2023-04-11T06:47:26.247Z,885.38
2023-04-11T06:49:52.938Z,890.40
2023-04-11T06:52:19.648Z,886.30
2023-04-11T06:54:47.982Z,879.83
2023-04-11T06:57:14.665Z,889.33
2023-04-11T06:59:41.346Z,885.30
2023-04-11T07:02:08.279Z,882.80
2023-04-11T07:04:35.120Z,895.85
2023-04-11T07:07:02.003Z,895.67
2023-04-11T07:09:28.798Z,900.22
2023-04-11T07:11:56.180Z,890.67
2023-04-11T07:14:22.879Z,893.58
2023-04-11T07:16:49.520Z,898.47
2023-04-11T07:19:16.106Z,893.58
2023-04-11T07:21:42.880Z,896.33
2023-04-11T07:24:10.566Z,892.03
2023-04-11T07:26:38.507Z,898.58
2023-04-11T07:29:06.054Z,892.38
2023-04-11T07:31:33.818Z,883.83
2023-04-11T07:34:00.617Z,899.88
2023-04-11T07:36:27.354Z,892.15
2023-04-11T07:38:54.045Z,890.55
2023-04-11T07:41:20.925Z,892.03
2023-04-11T07:43:47.649Z,889.60
2023-04-11T07:46:15.328Z,882.55
2023-04-11T07:48:42.937Z,881.38
2023-04-11T07:51:09.665Z,881.78
2023-04-11T07:53:36.467Z,879.58
2023-04-11T07:56:03.317Z,887.80
2023-04-11T07:58:30.261Z,887.38
2023-04-11T08:00:57.000Z,893.92
2023-04-11T08:03:24.048Z,896.73
2023-04-11T08:05:52.102Z,897.30
2023-04-11T08:08:18.882Z,897.53
2023-04-11T08:10:45.781Z,896.58
2023-04-11T08:13:12.577Z,899.33
2023-04-11T08:15:39.339Z,900.05
2023-04-11T08:18:06.207Z,903.50
2023-04-11T08:20:33.005Z,899.60
2023-04-11T08:23:00.554Z,900.55
2023-04-11T08:25:27.386Z,914.92
2023-04-11T08:27:54.094Z,911.45
2023-04-11T08:30:21.148Z,917.28
2023-04-11T08:32:47.847Z,917.00
2023-04-11T08:35:14.605Z,911.00
2023-04-11T08:37:41.569Z,908.10
2023-04-11T08:40:09.160Z,914.53
2023-04-11T08:42:36.022Z,904.53
2023-04-11T08:45:05.860Z,905.30
2023-04-11T08:47:32.591Z,908.50
2023-04-11T08:49:59.274Z,906.58
2023-04-11T08:52:26.389Z,907.83
2023-04-11T08:54:57.240Z,906.88
2023-04-11T08:57:31.193Z,909.33
2023-04-11T09:00:19.032Z,898.40
2023-04-11T09:03:06.583Z,901.88
2023-04-11T09:05:35.260Z,901.50
2023-04-11T09:08:06.820Z,892.80
2023-04-11T09:10:33.985Z,893.40
2023-04-11T09:13:02.086Z,897.83
2023-04-11T09:15:30.761Z,896.38
2023-04-11T09:18:00.370Z,889.75
2023-04-11T09:20:30.335Z,894.17
2023-04-11T09:22:59.068Z,903.38
2023-04-11T09:25:25.914Z,904.20
2023-04-11T09:28:07.900Z,920.08
2023-04-11T09:30:35.172Z,926.10
2023-04-11T09:33:22.580Z,956.92
2023-04-11T09:35:52.318Z,958.38
2023-04-11T09:38:33.748Z,967.83
2023-04-11T09:41:02.185Z,975.15
2023-04-11T09:43:49.418Z,981.20
2023-04-11T09:46:18.748Z,985.88
2023-04-11T09:48:47.131Z,982.60
2023-04-11T09:51:24.306Z,981.90
2023-04-11T09:53:58.997Z,978.80
2023-04-11T09:56:26.638Z,968.30
2023-04-11T09:58:56.486Z,963.63
2023-04-11T10:01:24.434Z,959.85
2023-04-11T10:03:51.284Z,953.67
2023-04-11T10:06:42.857Z,950.10
2023-04-11T10:09:13.773Z,953.10
2023-04-11T10:11:44.524Z,947.53
2023-04-11T10:14:39.411Z,957.80
2023-04-11T10:17:17.664Z,950.15
2023-04-11T10:19:48.119Z,956.10
2023-04-11T10:22:43.344Z,966.47
2023-04-11T10:25:26.776Z,972.08
2023-04-11T10:28:04.085Z,983.53
2023-04-11T10:30:39.850Z,990.10
2023-04-11T10:33:14.587Z,985.57
2023-04-11T10:36:03.763Z,985.80
2023-04-11T10:38:48.425Z,984.75
2023-04-11T10:41:34.257Z,978.03
2023-04-11T10:44:18.363Z,976.35
2023-04-11T10:46:50.454Z,976.42
2023-04-11T10:49:37.942Z,976.72
2023-04-11T10:52:23.896Z,978.97
2023-04-11T10:54:52.562Z,970.35
2023-04-11T10:57:19.806Z,980.13
2023-04-11T10:59:49.466Z,971.50
2023-04-11T11:02:16.831Z,967.45
2023-04-11T11:04:43.669Z,963.03
2023-04-11T11:07:15.569Z,954.05
2023-04-11T11:09:48.994Z,925.40
2023-04-11T11:12:16.815Z,919.60
2023-04-11T11:14:45.688Z,930.90
2023-04-11T11:17:14.298Z,924.40
2023-04-11T11:19:48.562Z,926.20
2023-04-11T11:22:16.597Z,919.13
2023-04-11T11:24:43.406Z,925.00
2023-04-11T11:27:24.048Z,916.80
2023-04-11T11:29:51.500Z,922.67
2023-04-11T11:32:29.226Z,921.03
2023-04-11T11:34:57.465Z,918.30
2023-04-11T11:37:24.795Z,919.75
2023-04-11T11:39:52.041Z,913.88
2023-04-11T11:42:18.809Z,921.92
2023-04-11T11:44:45.798Z,916.20
2023-04-11T11:47:15.104Z,924.83
2023-04-11T11:49:46.207Z,922.97
2023-04-11T11:52:30.936Z,917.92
2023-04-11T11:54:57.545Z,909.85
2023-04-11T11:57:24.239Z,915.55
2023-04-11T11:59:54.926Z,919.08
2023-04-11T12:02:23.712Z,918.42
2023-04-11T12:04:51.197Z,918.38
2023-04-11T12:07:22.783Z,918.83
2023-04-11T12:09:49.795Z,927.20
2023-04-11T12:12:19.372Z,928.80
2023-04-11T12:14:54.991Z,916.70
2023-04-11T12:17:21.789Z,925.15
2023-04-11T12:19:48.602Z,926.38
2023-04-11T12:22:15.743Z,918.78
2023-04-11T12:24:42.372Z,909.63
2023-04-11T12:27:10.737Z,915.72
2023-04-11T12:29:37.979Z,908.47
2023-04-11T12:32:04.654Z,912.88
2023-04-11T12:34:31.290Z,917.95
2023-04-11T12:36:58.033Z,905.85
2023-04-11T12:39:24.862Z,915.67
2023-04-11T12:41:51.480Z,919.38
2023-04-11T12:44:18.287Z,913.20
2023-04-11T12:46:45.032Z,919.15
2023-04-11T12:49:11.778Z,921.33
2023-04-11T12:51:38.382Z,913.25
2023-04-11T12:54:04.981Z,907.45
2023-04-11T12:56:32.469Z,899.15
2023-04-11T12:58:59.197Z,909.13
2023-04-11T13:01:26.252Z,908.63
2023-04-11T13:03:53.077Z,900.53
2023-04-11T13:06:19.865Z,922.42
2023-04-11T13:08:47.028Z,920.97
2023-04-11T13:11:13.722Z,933.75
2023-04-11T13:13:40.320Z,927.40
2023-04-11T13:16:08.479Z,925.20
2023-04-11T13:18:35.226Z,945.05
2023-04-11T13:21:01.955Z,939.28
2023-04-11T13:23:28.563Z,925.30
2023-04-11T13:25:55.184Z,924.55
2023-04-11T13:28:21.781Z,928.67
2023-04-11T13:30:48.439Z,931.88
2023-04-11T13:33:15.109Z,932.50
2023-04-11T13:35:41.698Z,934.80
2023-04-11T13:38:08.492Z,915.80
2023-04-11T13:40:35.798Z,907.05
2023-04-11T13:43:02.456Z,908.72
2023-04-11T13:45:29.159Z,905.65
2023-04-11T13:47:55.924Z,909.92
2023-04-11T13:50:22.527Z,931.03
2023-04-11T13:52:49.165Z,942.15
2023-04-11T13:55:16.362Z,939.42
2023-04-11T13:57:42.969Z,936.43
2023-04-11T14:00:12.752Z,927.03
2023-04-11T14:02:40.722Z,943.88
2023-04-11T14:05:09.216Z,951.65
2023-04-11T14:07:36.017Z,931.40
2023-04-11T14:10:02.909Z,940.53
2023-04-11T14:12:29.567Z,952.80
2023-04-11T14:14:56.203Z,958.05
2023-04-11T14:17:22.863Z,957.23
2023-04-11T14:19:49.529Z,957.17
2023-04-11T14:22:16.424Z,957.93
2023-04-11T14:24:43.276Z,958.25
2023-04-11T14:27:10.196Z,949.92
2023-04-11T14:29:37.495Z,956.78
2023-04-11T14:32:04.732Z,954.75
2023-04-11T14:34:31.486Z,940.45
2023-04-11T14:36:58.158Z,947.85
2023-04-11T14:39:24.836Z,949.70
2023-04-11T14:41:51.498Z,949.28
2023-04-11T14:44:18.188Z,954.83
2023-04-11T14:46:44.904Z,949.15
2023-04-11T14:49:11.598Z,963.35
2023-04-11T14:51:38.702Z,960.95
2023-04-11T14:54:05.548Z,960.45
2023-04-11T14:56:32.384Z,963.65
2023-04-11T14:58:59.068Z,961.58
2023-04-11T15:01:26.554Z,966.60
2023-04-11T15:03:54.486Z,961.33
2023-04-11T15:06:21.516Z,966.05
2023-04-11T15:08:49.135Z,960.47
2023-04-11T15:11:17.051Z,960.47
2023-04-11T15:13:47.836Z,958.65
2023-04-11T15:16:14.570Z,963.05
2023-04-11T15:18:41.245Z,967.25
2023-04-11T15:21:08.387Z,983.10
2023-04-11T15:23:35.318Z,980.30
2023-04-11T15:26:03.606Z,982.00
2023-04-11T15:28:39.072Z,975.78
2023-04-11T15:31:08.934Z,973.00
2023-04-11T15:33:36.584Z,966.25
2023-04-11T15:36:03.315Z,962.47
2023-04-11T15:38:29.948Z,960.72
2023-04-11T15:40:59.269Z,961.63
2023-04-11T15:43:26.381Z,960.13
2023-04-11T15:45:54.049Z,952.95
2023-04-11T15:48:20.859Z,953.40
2023-04-11T15:50:47.512Z,925.90
2023-04-11T15:53:14.164Z,927.83
2023-04-11T15:55:41.962Z,932.42
2023-04-11T15:58:09.027Z,932.45
2023-04-11T16:00:37.147Z,925.20
2023-04-11T16:03:05.331Z,927.55
2023-04-11T16:05:32.533Z,918.90
2023-04-11T16:07:59.405Z,922.67
2023-04-11T16:10:26.457Z,939.75
2023-04-11T16:12:53.301Z,924.15
2023-04-11T16:15:20.096Z,938.20
2023-04-11T16:17:46.792Z,927.53
2023-04-11T16:20:18.230Z,935.45
2023-04-11T16:22:46.170Z,927.08
2023-04-11T16:25:15.700Z,947.63
2023-04-11T16:27:42.331Z,943.65
2023-04-11T16:30:09.451Z,951.13
2023-04-11T16:32:36.281Z,952.42
2023-04-11T16:35:03.017Z,948.00
2023-04-11T16:37:29.934Z,945.30
2023-04-11T16:39:57.760Z,945.60
2023-04-11T16:42:24.668Z,944.67
2023-04-11T16:44:51.340Z,939.90
2023-04-11T16:47:18.545Z,917.25
2023-04-11T16:49:46.872Z,935.80
2023-04-11T16:52:13.735Z,922.97
2023-04-11T16:54:40.440Z,932.10
2023-04-11T16:57:07.150Z,930.30
2023-04-11T16:59:34.353Z,926.00
2023-04-11T17:02:01.063Z,920.08
2023-04-11T17:04:27.954Z,929.03
2023-04-11T17:06:55.770Z,936.67
2023-04-11T17:09:22.409Z,932.47
2023-04-11T17:11:49.097Z,923.13
2023-04-11T17:14:16.008Z,928.60
2023-04-11T17:16:43.458Z,927.45
2023-04-11T17:19:10.506Z,918.50
2023-04-11T17:21:37.167Z,916.28
2023-04-11T17:24:03.957Z,919.70
2023-04-11T17:26:30.713Z,912.30
2023-04-11T17:28:57.478Z,915.25
2023-04-11T17:31:27.494Z,908.25
2023-04-11T17:33:54.297Z,912.80
2023-04-11T17:36:21.494Z,911.10
2023-04-11T17:38:48.401Z,907.13
2023-04-11T17:41:15.826Z,910.38
2023-04-11T17:43:43.575Z,914.30
2023-04-11T17:46:10.425Z,908.45
2023-04-11T17:48:37.235Z,906.53
2023-04-11T17:51:05.694Z,905.63
2023-04-11T17:53:32.896Z,908.00
2023-04-11T17:56:04.376Z,916.22
2023-04-11T17:58:31.771Z,918.25
2023-04-11T18:00:58.550Z,909.15
2023-04-11T18:03:26.086Z,902.60
2023-04-11T18:05:54.347Z,895.47
2023-04-11T18:08:28.727Z,899.72
2023-04-11T18:11:04.126Z,906.13
2023-04-11T18:13:31.539Z,897.78
2023-04-11T18:15:58.388Z,899.72
2023-04-11T18:18:25.539Z,907.33
2023-04-11T18:20:52.119Z,898.08
2023-04-11T18:23:18.732Z,893.47
2023-04-11T18:25:45.402Z,901.08
2023-04-11T18:28:12.034Z,899.67
2023-04-11T18:30:38.736Z,891.95
2023-04-11T18:33:05.635Z,891.55
2023-04-11T18:35:32.482Z,892.65
2023-04-11T18:37:59.914Z,889.20
2023-04-11T18:40:26.869Z,892.22
2023-04-11T18:42:55.296Z,889.75
2023-04-11T18:45:23.426Z,886.60
2023-04-11T18:47:50.591Z,880.00
2023-04-11T18:50:18.641Z,881.45
2023-04-11T18:52:46.400Z,877.75
2023-04-11T18:55:14.222Z,887.83
2023-04-11T18:57:41.621Z,870.53
2023-04-11T19:00:18.573Z,872.43
2023-04-11T19:02:46.762Z,867.83
2023-04-11T19:05:14.249Z,870.30
2023-04-11T19:07:42.064Z,870.08
2023-04-11T19:10:10.757Z,866.83
2023-04-11T19:12:37.437Z,877.65
2023-04-11T19:15:06.759Z,876.90
2023-04-11T19:17:38.235Z,866.10
2023-04-11T19:20:12.817Z,871.55
2023-04-11T19:22:40.829Z,851.30
2023-04-11T19:25:13.332Z,866.22
2023-04-11T19:27:41.753Z,862.17
2023-04-11T19:30:10.116Z,851.33
2023-04-11T19:32:40.433Z,857.90
2023-04-11T19:35:10.775Z,854.07
2023-04-11T19:37:37.862Z,859.38
2023-04-11T19:40:11.016Z,849.05
2023-04-11T19:42:39.749Z,855.93
2023-04-11T19:45:08.757Z,862.33
2023-04-11T19:47:35.582Z,849.67
2023-04-11T19:50:02.500Z,848.00
2023-04-11T19:52:29.182Z,858.67
2023-04-11T19:54:56.547Z,855.95
2023-04-11T19:57:26.384Z,855.65
2023-04-11T19:59:53.192Z,840.65
2023-04-11T20:02:20.088Z,838.15
2023-04-11T20:04:46.839Z,860.90
2023-04-11T20:07:13.525Z,840.17
2023-04-11T20:09:40.186Z,826.23
2023-04-11T20:12:07.327Z,847.45
2023-04-11T20:14:34.215Z,857.83
2023-04-11T20:17:01.319Z,852.00
2023-04-11T20:19:29.525Z,850.67
2023-04-11T20:21:56.394Z,857.85
2023-04-11T20:24:23.785Z,834.87
2023-04-11T20:26:51.113Z,844.00
2023-04-11T20:29:18.251Z,826.33
2023-04-11T20:31:45.014Z,827.85
2023-04-11T20:34:11.806Z,835.85
2023-04-11T20:36:38.804Z,837.75
2023-04-11T20:39:06.094Z,828.63
2023-04-11T20:41:32.768Z,851.83
2023-04-11T20:43:59.777Z,845.15
2023-04-11T20:46:29.823Z,848.03
2023-04-11T20:48:56.884Z,857.08
2023-04-11T20:51:24.977Z,855.30
2023-04-11T20:53:51.747Z,850.55
2023-04-11T20:56:18.394Z,851.13
2023-04-11T20:58:46.430Z,858.17
2023-04-11T21:01:13.466Z,860.90
2023-04-11T21:03:42.431Z,852.97
2023-04-11T21:06:10.212Z,853.07
2023-04-11T21:08:37.388Z,854.65
2023-04-11T21:11:05.524Z,864.15
2023-04-11T21:13:32.191Z,862.85
2023-04-11T21:15:58.910Z,856.90
2023-04-11T21:18:25.658Z,854.20
2023-04-11T21:20:52.364Z,861.03
2023-04-11T21:23:18.964Z,853.38
2023-04-11T21:25:45.572Z,853.05
2023-04-11T21:28:12.226Z,856.78
2023-04-11T21:30:39.625Z,857.08
2023-04-11T21:33:06.409Z,858.42
2023-04-11T21:35:33.151Z,847.43
2023-04-11T21:37:59.835Z,861.40
2023-04-11T21:40:26.484Z,849.58
2023-04-11T21:42:53.501Z,851.92
2023-04-11T21:45:20.219Z,854.47
2023-04-11T21:47:47.166Z,847.60
2023-04-11T21:50:13.892Z,852.05
2023-04-11T21:52:40.587Z,851.00
2023-04-11T21:55:09.002Z,849.70
2023-04-11T21:57:35.967Z,848.95
2023-04-11T22:00:08.223Z,854.72
2023-04-11T22:02:35.745Z,841.53
2023-04-11T22:05:06.904Z,831.55
2023-04-11T22:07:38.385Z,825.55
2023-04-11T22:10:09.664Z,830.13
2023-04-11T22:12:36.768Z,831.67
2023-04-11T22:15:05.160Z,824.20
2023-04-11T22:17:32.257Z,830.28
2023-04-11T22:19:58.901Z,830.72
2023-04-11T22:22:32.506Z,819.47
2023-04-11T22:24:59.897Z,826.40
2023-04-11T22:27:27.304Z,824.17
2023-04-11T22:29:57.651Z,822.55
2023-04-11T22:32:24.448Z,818.00
2023-04-11T22:34:51.234Z,833.85
2023-04-11T22:37:17.999Z,833.83
2023-04-11T22:39:44.624Z,820.83
2023-04-11T22:42:11.635Z,821.22
2023-04-11T22:44:38.462Z,825.72
2023-04-11T22:47:07.183Z,825.97
2023-04-11T22:49:40.368Z,822.05
2023-04-11T22:52:09.365Z,822.03
2023-04-11T22:54:36.364Z,821.00
2023-04-11T22:57:03.085Z,807.97
2023-04-11T22:59:29.745Z,820.15
